EKBI

Billund Airport

Billund, Denmark
TAF EKBI 161701Z 1618/1718 12010KT CAVOK BECMG 1618/1621 VRB03KT TEMPO 1712/1718 VRB15G25KT TSRA BKN050CB
Issued Valid From Valid To
Jul-16 @ 17:01 UTC
(3 hours ago)
Jul-16 @ 18:00 UTC
(2 hours ago)
Jul-17 @ 18:00 UTC
(in 22 hours)
Jul-16 @ 18:00 to Jul-17 @ 18:00
TAF EKBI 161701Z 1618/1718 12010KT CAVOK
Wind Visibility Clouds Conditions
120° at 10 knots 10,000+ meters
  • No significant clouds
Becoming Jul-16 @ 18:00 to Jul-17 @ 18:00
BECMG 1618/1621 VRB03KT
Wind Visibility Clouds Conditions
Variable at 3 knots 10,000+ meters
  • No significant clouds
Temporary Jul-17 @ 12:00 to Jul-17 @ 18:00
TEMPO 1712/1718 VRB15G25KT TSRA BKN050CB
Wind Clouds Conditions
Variable at 15 knots
 Gusting to 25 knots
  • Broken at 5,000' AGL
  • Thunderstorm
  • Rain
TAF EKBI 161701Z 1618/1718 12010KT CAVOK BECMG 1618/1621 VRB03KT TEMPO 1712/1718 VRB15G25KT TSRA BKN050CB
Issued Jul-16 @ 17:01 UTC
(3 hours ago)
Valid From Jul-16 @ 18:00 UTC
(2 hours ago)
Valid To Jul-17 @ 18:00 UTC
(in 22 hours)
Jul-16 @ 18:00 - Jul-17 @ 18:00
Wind Visibility
120° at 10 knots 10,000+ meters
Clouds
  • No significant clouds
Conditions
Becoming Jul-16 @ 18:00 - Jul-17 @ 18:00
Wind Visibility
Variable at 3 knots 10,000+ meters
Clouds
  • No significant clouds
Conditions
Temporary Jul-17 @ 12:00 - Jul-17 @ 18:00
Wind
Variable at 15 knots
 Gusting to 25 knots
Clouds
  • Broken at 5,000' AGL
Conditions
  • Thunderstorm
  • Rain